Time;durP1;ratioP1;P1;durP2;ratioP2;P2;SDS_P1;SDS_P2;PMS_P1;PMS_P2;Temp;Humidity;BMP_temperature;BMP_pressure;BME280_temperature;BME280_humidity;BME280_pressure;Samples;Min_cycle;Max_cycle;Signal;HPM_P1;HPM_P2
2021/04/18 00:00:45;;;;;;;;;;;;;;;4.41;100.00;92711.50;5052739;28;20049;-77
2021/04/18 00:03:11;;;;;;;2.80;1.40;;;;;;;4.41;100.00;92711.50;5051731;28;20395;-77
2021/04/18 00:05:37;;;;;;;;;;;;;;;4.39;100.00;92711.69;5052653;28;20044;-76
2021/04/18 00:08:04;;;;;;;2.78;1.80;;;;;;;4.35;100.00;92700.31;5051840;28;19920;-76
2021/04/18 00:10:31;;;;;;;4.82;2.53;;;;;;;4.37;100.00;92684.88;5051946;28;20615;-77
2021/04/18 00:12:59;;;;;;;4.32;2.20;;;;;;;4.27;100.00;92678.34;5052054;28;20053;-77
2021/04/18 00:15:25;;;;;;;4.57;2.17;;;;;;;4.46;100.00;92698.22;5051683;28;20040;-77
2021/04/18 00:17:52;;;;;;;4.40;2.75;;;;;;;4.39;100.00;92683.72;5051453;28;20053;-77
2021/04/18 00:20:19;;;;;;;3.75;2.00;;;;;;;4.44;100.00;92688.22;5051523;28;20045;-77
2021/04/18 00:22:46;;;;;;;8.07;2.38;;;;;;;4.57;100.00;92694.41;5051717;28;20488;-77
2021/04/18 00:25:14;;;;;;;2.80;1.80;;;;;;;4.43;100.00;92684.13;5051269;28;20049;-77
2021/04/18 00:27:41;;;;;;;5.47;2.88;;;;;;;4.27;100.00;92692.81;5051529;28;20045;-77
2021/04/18 00:30:11;;;;;;;5.05;2.33;;;;;;;4.30;100.00;92687.34;5051618;28;20048;-77
2021/04/18 00:32:38;;;;;;;7.00;2.97;;;;;;;4.36;100.00;92693.47;5051303;28;20057;-77
2021/04/18 00:35:06;;;;;;;5.80;2.53;;;;;;;4.39;100.00;92693.09;5051404;28;20045;-77
2021/04/18 00:37:32;;;;;;;5.95;2.90;;;;;;;4.43;100.00;92699.38;5051359;28;20045;-76
2021/04/18 00:39:58;;;;;;;;;;;;;;;4.47;100.00;92697.25;5049661;28;20053;-76
2021/04/18 00:42:24;;;;;;;6.35;3.08;;;;;;;4.44;100.00;92690.78;5069108;28;19969;-76
2021/04/18 00:44:50;;;;;;;;;;;;;;;4.38;100.00;92684.69;5070655;28;20074;-76
2021/04/18 00:47:18;;;;;;;7.97;3.25;;;;;;;4.22;100.00;92674.78;5071322;28;19920;-76
2021/04/18 00:49:44;;;;;;;5.80;3.20;;;;;;;4.18;100.00;92676.13;5071200;28;20117;-76
2021/04/18 00:52:11;;;;;;;4.35;2.63;;;;;;;4.09;100.00;92663.53;5070621;28;20048;-77
2021/04/18 00:54:37;;;;;;;6.75;3.30;;;;;;;4.09;100.00;92666.09;5071125;28;20064;-76
2021/04/18 00:57:06;;;;;;;6.75;4.15;;;;;;;4.26;100.00;92676.75;5071103;28;20434;-76
2021/04/18 00:59:33;;;;;;;6.57;3.92;;;;;;;4.31;100.00;92680.53;5070841;28;20052;-76
2021/04/18 01:01:59;;;;;;;8.63;4.57;;;;;;;4.37;100.00;92680.56;5070614;28;20419;-76
2021/04/18 01:04:27;;;;;;;10.65;4.30;;;;;;;4.43;100.00;92676.50;5070784;28;21104;-77
2021/04/18 01:06:53;;;;;;;14.23;5.60;;;;;;;4.50;100.00;92684.94;5070740;28;20049;-79
2021/04/18 01:09:19;;;;;;;;;;;;;;;4.55;100.00;92680.09;5071212;28;20159;-79
2021/04/18 01:11:46;;;;;;;9.82;4.38;;;;;;;4.51;100.00;92668.75;5070465;28;20265;-80
2021/04/18 01:14:12;;;;;;;9.13;4.85;;;;;;;4.48;100.00;92650.50;5070147;28;20118;-80
2021/04/18 01:16:38;;;;;;;9.82;5.28;;;;;;;4.62;100.00;92652.16;5070719;28;20062;-79
2021/04/18 01:19:04;;;;;;;;;;;;;;;4.62;100.00;92671.72;5071388;28;20052;-79
2021/04/18 01:21:32;;;;;;;11.10;6.15;;;;;;;4.58;100.00;92658.59;5070253;28;20406;-79
2021/04/18 01:23:58;;;;;;;8.43;4.47;;;;;;;4.63;100.00;92665.69;5070460;28;20056;-78
2021/04/18 01:26:24;;;;;;;8.80;5.18;;;;;;;4.60;100.00;92658.41;5070359;28;20522;-81
2021/04/18 01:28:50;;;;;;;;;;;;;;;4.74;100.00;92664.38;5070877;28;20048;-81
2021/04/18 01:31:17;;;;;;;11.00;4.07;;;;;;;4.70;100.00;92674.13;5070469;28;19926;-81
2021/04/18 01:33:43;;;;;;;;;;;;;;;4.75;100.00;92668.47;5070569;28;20057;-81
2021/04/18 01:36:10;;;;;;;6.88;3.30;;;;;;;4.76;100.00;92659.88;5070211;28;19921;-81
2021/04/18 01:38:38;;;;;;;7.13;3.83;;;;;;;4.54;100.00;92637.06;5070392;28;21142;-80
2021/04/18 01:41:08;;;;;;;7.43;4.28;;;;;;;4.74;100.00;92672.78;5070204;28;20044;-80
2021/04/18 01:43:38;;;;;;;9.68;3.83;;;;;;;4.76;100.00;92681.03;5070004;28;20106;-80
2021/04/18 01:46:05;;;;;;;6.50;3.75;;;;;;;4.72;100.00;92658.69;5069984;28;20059;-80
2021/04/18 01:48:31;;;;;;;10.93;5.80;;;;;;;4.83;100.00;92678.53;5069986;28;20078;-81
2021/04/18 01:51:03;;;;;;;;;;;;;;;4.85;100.00;92674.03;5070626;28;20052;-82
2021/04/18 01:53:29;;;;;;;9.77;3.67;;;;;;;4.80;100.00;92668.69;5069835;28;20367;-80
2021/04/18 01:55:56;;;;;;;;;;;;;;;4.81;100.00;92665.97;5070507;28;20048;-78
2021/04/18 01:58:22;;;;;;;9.65;4.65;;;;;;;4.77;100.00;92662.22;5069696;28;19931;-78
2021/04/18 02:00:49;;;;;;;6.50;3.88;;;;;;;4.75;100.00;92648.13;5070026;28;20113;-78
2021/04/18 02:03:15;;;;;;;;;;;;;;;4.82;100.00;92670.09;5069773;28;20052;-80
2021/04/18 02:05:41;;;;;;;9.35;4.57;;;;;;;4.77;100.00;92664.00;5070050;28;19943;-79
2021/04/18 02:08:07;;;;;;;9.50;4.68;;;;;;;4.80;100.00;92671.25;5069531;28;20055;-80
2021/04/18 02:10:33;;;;;;;;;;;;;;;4.87;100.00;92671.28;5069926;28;20052;-80
2021/04/18 02:13:01;;;;;;;7.88;4.65;;;;;;;4.82;100.00;92671.88;5069399;28;19920;-80
2021/04/18 02:15:27;;;;;;;11.00;4.93;;;;;;;4.85;100.00;92668.16;5069774;28;20045;-80
2021/04/18 02:17:53;;;;;;;9.15;4.85;;;;;;;4.88;100.00;92667.78;5069562;28;20090;-80
2021/04/18 02:20:19;;;;;;;;;;;;;;;4.89;100.00;92669.34;5070112;28;20048;-79
2021/04/18 02:22:46;;;;;;;9.60;5.03;;;;;;;4.89;100.00;92666.78;5069346;28;19924;-80
2021/04/18 02:25:13;;;;;;;6.95;4.72;;;;;;;4.91;100.00;92662.31;5069072;28;20094;-80
2021/04/18 02:27:40;;;;;;;10.68;5.65;;;;;;;4.89;100.00;92669.34;5069745;28;20094;-80
2021/04/18 02:30:09;;;;;;;11.85;6.35;;;;;;;4.92;100.00;92672.28;5069629;28;20056;-80
2021/04/18 02:32:35;;;;;;;10.00;5.75;;;;;;;4.82;100.00;92652.28;5069185;28;20044;-80
2021/04/18 02:35:01;;;;;;;;;;;;;;;4.95;100.00;92664.28;5069625;28;20052;-80
2021/04/18 02:37:28;;;;;;;11.27;4.45;;;;;;;4.94;100.00;92661.94;5069213;28;19924;-80
2021/04/18 02:39:54;;;;;;;;;;;;;;;4.92;100.00;92657.00;5069519;28;20059;-80
2021/04/18 02:42:20;;;;;;;13.45;4.90;;;;;;;4.86;100.00;92651.91;5069252;28;19920;-80
2021/04/18 02:44:46;;;;;;;;;;;;;;;4.91;100.00;92663.09;5069565;28;20048;-81
2021/04/18 02:47:14;;;;;;;9.55;5.35;;;;;;;4.86;100.00;92662.84;5069232;28;20375;-81
2021/04/18 02:49:41;;;;;;;11.98;4.63;;;;;;;4.86;100.00;92664.63;5069367;28;20514;-80
2021/04/18 02:52:08;;;;;;;10.18;4.97;;;;;;;4.85;100.00;92658.75;5069090;28;20487;-80
2021/04/18 02:54:34;;;;;;;10.52;5.40;;;;;;;4.84;100.00;92653.84;5069287;28;20044;-80
2021/04/18 02:57:00;;;;;;;;;;;;;;;4.97;100.00;92665.84;5069512;28;20051;-80
2021/04/18 02:59:26;;;;;;;7.75;3.97;;;;;;;5.01;100.00;92661.97;5068873;28;19943;-80
2021/04/18 03:01:52;;;;;;;;;;;;;;;5.04;100.00;92674.28;5069630;28;20055;-80
2021/04/18 03:04:19;;;;;;;6.65;4.40;;;;;;;5.06;100.00;92680.78;5069126;28;19920;-81
2021/04/18 03:06:46;;;;;;;14.20;6.00;;;;;;;5.11;100.00;92680.22;5069281;28;20064;-80
2021/04/18 03:09:12;;;;;;;;;;;;;;;5.07;100.00;92687.47;5069240;28;20480;-79
2021/04/18 03:11:38;;;;;;;6.43;3.90;;;;;;;5.02;100.00;92683.91;5068907;28;19928;-79
2021/04/18 03:14:04;;;;;;;;;;;;;;;4.92;100.00;92681.69;5069330;28;20064;-82
2021/04/18 03:16:57;;;;;;;12.32;5.25;;;;;;;4.75;100.00;92681.19;5068410;28;19931;-82
2021/04/18 03:19:25;;;;;;;10.45;5.50;;;;;;;4.52;100.00;92679.69;5069423;28;20049;-81
2021/04/18 03:21:51;;;;;;;13.25;6.63;;;;;;;4.44;100.00;92670.44;5068887;28;20462;-80
2021/04/18 03:24:17;;;;;;;;;;;;;;;4.50;100.00;92682.41;5069472;28;20052;-80
2021/04/18 03:26:43;;;;;;;11.32;6.22;;;;;;;4.50;100.00;92676.56;5073009;28;19931;-80
2021/04/18 03:29:09;;;;;;;;;;;;;;;4.55;100.00;92686.97;5073146;28;20049;-80
2021/04/18 03:31:35;;;;;;;8.23;5.18;;;;;;;4.50;100.00;92671.47;5072735;28;19921;-82
2021/04/18 03:34:01;;;;;;;;;;;;;;;4.61;100.00;92683.66;5073168;28;20396;-82
2021/04/18 03:36:29;;;;;;;17.75;8.45;;;;;;;4.63;100.00;92660.59;5072633;28;20368;-82
2021/04/18 03:38:55;;;;;;;13.73;7.18;;;;;;;4.63;100.00;92656.28;5072839;28;20389;-82
2021/04/18 03:41:21;;;;;;;;;;;;;;;4.71;100.00;92665.53;5073003;28;20056;-82
2021/04/18 03:43:48;;;;;;;15.07;8.82;;;;;;;4.69;100.00;92664.94;5072599;28;19920;-82
2021/04/18 03:46:14;;;;;;;;;;;;;;;4.74;100.00;92664.38;5072507;28;20053;-82
2021/04/18 03:48:40;;;;;;;10.32;6.13;;;;;;;4.71;100.00;92675.69;5072031;28;19920;-85
2021/04/18 03:51:06;;;;;;;11.95;6.55;;;;;;;4.74;100.00;92666.91;5072667;28;20450;-80
2021/04/18 03:53:33;;;;;;;;;;;;;;;4.76;100.00;92675.94;5072444;28;20048;-80
2021/04/18 03:56:02;;;;;;;13.77;7.90;;;;;;;4.78;100.00;92668.13;5072066;28;19927;-80
2021/04/18 03:58:29;;;;;;;17.70;8.27;;;;;;;4.77;100.00;92667.31;5072305;28;20075;-80
2021/04/18 04:00:55;;;;;;;11.55;6.32;;;;;;;4.75;100.00;92668.47;5072187;28;20071;-80
2021/04/18 04:03:21;;;;;;;12.73;6.47;;;;;;;4.79;100.00;92678.13;5071846;28;20140;-81
2021/04/18 04:05:47;;;;;;;;;;;;;;;4.80;100.00;92684.78;5068719;28;20062;-81
2021/04/18 04:08:14;;;;;;;12.25;6.18;;;;;;;4.77;100.00;92690.22;5042586;28;19924;-81
2021/04/18 04:10:41;;;;;;;14.77;6.72;;;;;;;4.78;100.00;92703.75;5042334;28;20045;-81
2021/04/18 04:13:07;;;;;;;18.83;7.63;;;;;;;4.66;100.00;92690.72;5041408;28;20495;-81
2021/04/18 04:15:33;;;;;;;;;;;;;;;4.58;100.00;92684.03;5043856;28;20493;-81
2021/04/18 04:17:59;;;;;;;11.32;5.78;;;;;;;4.60;100.00;92689.72;5040874;28;19921;-81
2021/04/18 04:20:25;;;;;;;;;;;;;;;4.65;100.00;92689.97;5043024;28;20432;-80
2021/04/18 04:22:52;;;;;;;13.02;6.47;;;;;;;4.49;100.00;92673.22;5039373;28;20414;-81
2021/04/18 04:25:18;;;;;;;;;;;;;;;4.67;100.00;92698.19;5039510;28;20692;-81
2021/04/18 04:27:45;;;;;;;9.60;6.65;;;;;;;4.60;100.00;92694.03;5048949;28;19921;-80
2021/04/18 04:30:12;;;;;;;13.27;6.78;;;;;;;4.60;100.00;92694.81;5051472;28;20049;-80
2021/04/18 04:32:39;;;;;;;15.00;7.95;;;;;;;4.74;100.00;92710.16;5067358;28;20067;-82
2021/04/18 04:35:05;;;;;;;;;;;;;;;4.78;100.00;92703.75;5051767;28;20041;-82
2021/04/18 04:37:31;;;;;;;12.85;6.35;;;;;;;4.73;100.00;92704.31;5051116;28;19931;-82
2021/04/18 04:39:58;;;;;;;;;;;;;;;4.77;100.00;92714.91;5052313;28;20053;-81
2021/04/18 04:42:24;;;;;;;10.05;5.47;;;;;;;4.80;100.00;92717.06;5038094;28;19956;-80
2021/04/18 04:44:51;;;;;;;;;;;;;;;4.86;100.00;92718.06;5069886;28;20091;-81
2021/04/18 04:47:17;;;;;;;14.27;7.18;;;;;;;4.79;100.00;92718.03;5071463;28;19928;-80
2021/04/18 04:49:43;;;;;;;;;;;;;;;4.88;100.00;92726.31;5071786;28;20078;-81
2021/04/18 04:52:10;;;;;;;14.63;7.45;;;;;;;4.76;100.00;92710.75;5071437;28;19924;-82
2021/04/18 04:54:37;;;;;;;12.07;5.68;;;;;;;4.83;100.00;92719.22;5071001;28;20566;-82
2021/04/18 04:57:03;;;;;;;14.32;10.13;;;;;;;4.73;100.00;92721.31;5071156;28;20056;-82
2021/04/18 04:59:30;;;;;;;18.52;9.85;;;;;;;4.79;100.00;92730.75;5057611;28;20500;-81
2021/04/18 05:01:57;;;;;;;;;;;;;;;4.78;100.00;92726.63;5051413;28;20460;-86
2021/04/18 05:04:23;;;;;;;13.25;6.90;;;;;;;4.19;100.00;92662.44;5050686;28;19921;-85
2021/04/18 05:06:52;;;;;;;11.02;6.95;;;;;;;4.77;100.00;92727.63;5050915;28;20049;-86
2021/04/18 05:09:19;;;;;;;13.63;8.90;;;;;;;4.55;100.00;92674.25;5050607;28;20041;-86
2021/04/18 05:11:45;;;;;;;15.60;7.95;;;;;;;4.68;100.00;92706.63;5050706;28;20053;-85
2021/04/18 05:14:11;;;;;;;14.75;7.80;;;;;;;4.52;100.00;92688.13;5050917;28;20048;-86
2021/04/18 05:16:38;;;;;;;10.23;6.95;;;;;;;4.51;100.00;92695.91;5050696;28;20051;-85
2021/04/18 05:19:05;;;;;;;13.13;8.02;;;;;;;4.12;100.00;92663.16;5050371;28;20053;-85
2021/04/18 05:21:32;;;;;;;13.23;7.43;;;;;;;4.65;100.00;92714.59;5070558;28;20416;-86
2021/04/18 05:23:58;;;;;;;;;;;;;;;4.72;100.00;92720.53;5070678;28;20066;-84
2021/04/18 05:26:24;;;;;;;13.73;8.52;;;;;;;4.63;100.00;92711.47;5070375;28;19951;-81
2021/04/18 05:28:53;;;;;;;16.60;7.35;;;;;;;4.78;100.00;92719.00;5070580;28;20048;-80
2021/04/18 05:31:20;;;;;;;14.57;7.53;;;;;;;4.79;100.00;92718.03;5046424;28;20102;-80
2021/04/18 05:33:49;;;;;;;;;;;;;;;4.75;100.00;92724.44;5034087;28;20409;-81
2021/04/18 05:36:16;;;;;;;14.18;6.57;;;;;;;4.79;100.00;92726.47;5030383;28;19921;-82
2021/04/18 05:38:42;;;;;;;11.30;6.30;;;;;;;4.57;100.00;92704.59;5030408;28;20049;-83
2021/04/18 05:41:09;;;;;;;;;;;;;;;4.87;100.00;92719.66;5030577;28;20049;-84
2021/04/18 05:43:35;;;;;;;12.57;6.97;;;;;;;4.92;100.00;92723.19;5044568;28;19925;-82
2021/04/18 05:46:01;;;;;;;;;;;;;;;5.02;100.00;92727.16;5050911;28;20056;-83
2021/04/18 05:48:27;;;;;;;12.02;6.15;;;;;;;5.10;100.00;92721.94;5049191;28;19936;-85
2021/04/18 05:50:54;;;;;;;13.80;7.88;;;;;;;4.71;100.00;92642.63;5049571;28;20107;-84
2021/04/18 05:53:21;;;;;;;;;;;;;;;5.20;100.00;92716.50;5050481;28;20044;-82
2021/04/18 05:55:47;;;;;;;12.15;6.93;;;;;;;4.54;100.00;92614.16;5049916;28;19927;-80
2021/04/18 05:58:15;;;;;;;;;;;;;;;5.25;100.00;92724.34;5050301;28;20049;-79
2021/04/18 06:00:41;;;;;;;15.73;8.23;;;;;;;5.25;100.00;92723.56;5049970;28;19921;-79
2021/04/18 06:03:07;;;;;;;;;;;;;;;5.33;100.00;92721.63;5050342;28;20492;-79
2021/04/18 06:05:34;;;;;;;19.52;9.65;;;;;;;5.15;100.00;92717.06;5049615;28;19932;-80
2021/04/18 06:08:00;;;;;;;17.88;8.30;;;;;;;5.16;100.00;92725.47;5049589;28;20492;-79
2021/04/18 06:10:45;;;;;;;17.50;9.70;;;;;;;4.91;100.00;92686.00;5049623;28;20053;-80
2021/04/18 06:13:11;;;;;;;15.07;8.02;;;;;;;5.21;100.00;92718.88;5048297;28;20500;-80
2021/04/18 06:15:38;;;;;;;;;;;;;;;5.19;100.00;92723.34;5050436;28;20457;-80
2021/04/18 06:18:04;;;;;;;16.33;7.68;;;;;;;5.15;100.00;92734.09;5050323;28;19920;-80
2021/04/18 06:20:30;;;;;;;;;;;;;;;5.17;100.00;92724.50;5062187;28;20125;-78
2021/04/18 06:22:56;;;;;;;11.50;4.97;;;;;;;5.18;100.00;92724.31;5069273;28;19931;-80
2021/04/18 06:25:32;;;;;;;11.40;6.47;;;;;;;5.26;100.00;92720.84;5069573;28;20147;-82
2021/04/18 06:27:59;;;;;;;20.00;8.07;;;;;;;5.18;100.00;92731.16;5047319;28;20059;-81
2021/04/18 06:30:25;;;;;;;12.15;7.05;;;;;;;5.30;100.00;92728.88;5047404;28;20053;-81
2021/04/18 06:36:11;;;;;;;10.23;6.05;;;;;;;5.51;100.00;92722.88;5044434;28;20063;-81
2021/04/18 06:41:39;;;;;;;11.45;7.57;;;;;;;5.19;100.00;92674.19;5091314;28;20038;-80
2021/04/18 06:44:07;;;;;;;22.75;9.00;;;;;;;5.40;100.00;92718.34;5052214;28;20084;-81
2021/04/18 06:46:39;;;;;;;14.50;7.43;;;;;;;5.25;100.00;92700.66;5038094;28;20045;-81
2021/04/18 06:52:08;;;;;;;15.55;6.53;;;;;;;5.06;100.00;92726.59;4973841;28;20058;-81
2021/04/18 06:54:35;;;;;;;16.35;7.85;;;;;;;5.19;100.00;92732.75;5029203;28;20132;-81
2021/04/18 07:03:24;;;;;;;11.52;6.93;;;;;;;4.54;100.00;92630.19;4947389;28;20158;-81
2021/04/18 07:05:54;;;;;;;17.73;7.40;;;;;;;5.54;100.00;92745.44;5033859;28;20439;-81
2021/04/18 07:08:24;;;;;;;15.32;6.18;;;;;;;5.60;100.00;92746.47;5033596;28;20120;-80
2021/04/18 07:10:51;;;;;;;16.25;8.40;;;;;;;5.73;100.00;92741.41;5033064;28;20052;-81
2021/04/18 07:13:19;;;;;;;14.43;7.13;;;;;;;5.85;100.00;92751.03;5033299;28;20056;-80
2021/04/18 07:15:48;;;;;;;14.43;7.30;;;;;;;5.89;100.00;92742.03;5033053;28;20065;-82
2021/04/18 07:18:38;;;;;;;13.80;7.05;;;;;;;5.99;100.00;92746.75;5032981;28;20049;-81
2021/04/18 07:21:04;;;;;;;13.10;6.88;;;;;;;5.89;100.00;92749.69;5033066;28;20046;-82
2021/04/18 07:23:34;;;;;;;13.52;8.02;;;;;;;5.92;100.00;92746.75;5032563;28;20528;-81
2021/04/18 07:26:18;;;;;;;16.30;7.22;;;;;;;5.84;100.00;92732.41;5032667;28;20041;-81
2021/04/18 07:28:45;;;;;;;17.92;7.72;;;;;;;5.74;100.00;92719.25;5032711;28;20045;-81
2021/04/18 07:31:13;;;;;;;14.95;8.02;;;;;;;5.40;100.00;92714.03;5032595;28;20049;-81
2021/04/18 07:34:10;;;;;;;14.50;7.35;;;;;;;5.67;100.00;92754.09;5019113;28;20074;-82
2021/04/18 07:37:00;;;;;;;12.60;6.90;;;;;;;5.68;100.00;92751.38;4952176;28;20138;-81
2021/04/18 07:39:52;;;;;;;16.48;7.75;;;;;;;5.55;100.00;92708.03;4919991;28;20061;-81
2021/04/18 07:42:36;;;;;;;12.63;7.30;;;;;;;5.89;100.00;92760.66;5024268;28;20063;-81
2021/04/18 07:45:07;;;;;;;15.48;7.30;;;;;;;6.01;100.00;92766.00;5052448;28;20412;-81
2021/04/18 07:47:36;;;;;;;18.75;8.52;;;;;;;6.02;100.00;92756.59;5052415;28;20053;-81
2021/04/18 07:50:05;;;;;;;17.63;7.53;;;;;;;6.11;100.00;92763.09;5052207;28;20069;-81
2021/04/18 07:52:40;;;;;;;17.80;7.90;;;;;;;6.13;100.00;92756.06;5052249;28;20451;-81
2021/04/18 07:55:07;;;;;;;22.63;8.15;;;;;;;6.06;100.00;92737.38;5051902;28;20547;-81
2021/04/18 07:57:34;;;;;;;23.77;10.90;;;;;;;6.31;100.00;92771.75;5052083;28;20052;-81
2021/04/18 08:00:00;;;;;;;16.17;8.18;;;;;;;6.04;100.00;92771.69;5052237;28;20053;-82
2021/04/18 08:02:27;;;;;;;15.68;7.53;;;;;;;5.87;100.00;92779.66;5052116;28;20488;-81
2021/04/18 08:04:55;;;;;;;19.52;8.48;;;;;;;5.88;100.00;92779.47;5052198;28;20048;-81
2021/04/18 08:07:22;;;;;;;17.98;9.88;;;;;;;5.86;100.00;92778.91;5051833;28;20076;-81
2021/04/18 08:10:22;;;;;;;23.45;10.43;;;;;;;5.86;100.00;92770.44;5051427;28;20063;-82
2021/04/18 08:13:00;;;;;;;14.48;8.95;;;;;;;5.56;100.00;92789.34;5052016;28;20049;-81
2021/04/18 08:15:30;;;;;;;19.40;9.68;;;;;;;5.70;100.00;92790.19;5051591;28;20044;-81
2021/04/18 08:18:08;;;;;;;19.75;9.88;;;;;;;5.81;100.00;92788.88;5051719;28;20051;-81
2021/04/18 08:20:37;;;;;;;24.55;9.95;;;;;;;5.87;100.00;92790.66;5064276;28;20049;-81
2021/04/18 08:23:06;;;;;;;20.15;8.15;;;;;;;5.87;100.00;92789.84;5071672;28;20060;-81
2021/04/18 08:25:33;;;;;;;20.45;9.73;;;;;;;5.86;100.00;92793.38;5071092;28;20052;-81
2021/04/18 08:28:03;;;;;;;25.20;10.35;;;;;;;5.87;100.00;92785.56;5071811;28;20442;-81
2021/04/18 08:30:30;;;;;;;18.60;9.73;;;;;;;5.73;100.00;92773.72;5071655;28;20045;-82
2021/04/18 08:32:57;;;;;;;24.20;10.82;;;;;;;5.94;100.00;92795.00;5063725;28;20053;-82
2021/04/18 08:35:25;;;;;;;21.30;10.07;;;;;;;5.99;100.00;92790.91;5051585;28;20056;-81
2021/04/18 08:38:19;;;;;;;28.05;13.45;;;;;;;6.00;100.00;92794.22;5051432;28;20056;-82
2021/04/18 08:40:46;;;;;;;49.90;18.70;;;;;;;6.01;100.00;92796.59;5051784;28;20127;-81
2021/04/18 08:43:18;;;;;;;;;;;;;;;6.04;100.00;92798.00;5051182;28;20432;-82
2021/04/18 08:45:49;;;;;;;25.70;11.65;;;;;;;6.01;100.00;92796.59;5051152;28;20303;-82
2021/04/18 08:48:16;;;;;;;24.08;12.07;;;;;;;5.91;100.00;92777.50;5051450;28;20045;-81
2021/04/18 08:50:56;;;;;;;17.95;9.10;;;;;;;5.99;100.00;92808.75;5051269;28;20064;-82
2021/04/18 08:53:24;;;;;;;24.52;11.43;;;;;;;5.61;100.00;92765.88;5050701;28;20139;-83
2021/04/18 08:55:59;;;;;;;22.23;10.90;;;;;;;5.39;100.00;92752.44;5050325;28;20060;-86
2021/04/18 08:58:39;;;;;;;23.13;11.32;;;;;;;5.87;100.00;92812.81;5050773;28;20045;-84
2021/04/18 09:01:08;;;;;;;51.05;20.48;;;;;;;5.59;100.00;92760.94;5051216;28;20071;-84
2021/04/18 09:03:57;;;;;;;63.78;23.45;;;;;;;5.81;100.00;92780.44;5050980;28;20136;-84
2021/04/18 09:09:17;;;;;;;30.42;13.93;;;;;;;5.72;100.00;92811.19;5050846;28;20057;-84
2021/04/18 09:11:47;;;;;;;61.40;25.45;;;;;;;5.69;100.00;92793.72;5050351;28;20506;-86
2021/04/18 09:14:18;;;;;;;109.82;36.83;;;;;;;5.68;100.00;92786.25;5050445;28;20405;-84
2021/04/18 09:16:45;;;;;;;46.03;20.25;;;;;;;5.91;100.00;92821.66;5050444;28;20136;-85
2021/04/18 09:19:25;;;;;;;23.50;11.85;;;;;;;5.89;100.00;92816.72;5051387;28;20053;-85
2021/04/18 09:21:59;;;;;;;21.08;11.23;;;;;;;6.08;100.00;92813.69;5069670;28;20048;-85
2021/04/18 09:24:29;;;;;;;25.60;10.52;;;;;;;5.47;100.00;92712.28;5070614;28;20056;-86
2021/04/18 09:26:57;;;;;;;28.23;11.50;;;;;;;6.12;100.00;92794.50;5070232;28;20045;-85
2021/04/18 09:29:24;;;;;;;26.50;11.20;;;;;;;5.86;100.00;92739.88;5070441;28;20094;-86
2021/04/18 09:32:02;;;;;;;23.70;11.27;;;;;;;5.87;100.00;92749.88;5070180;28;20048;-88
2021/04/18 09:34:29;;;;;;;23.52;10.63;;;;;;;6.33;100.00;92808.84;5030614;28;20053;-85
2021/04/18 09:36:57;;;;;;;18.55;9.23;;;;;;;5.82;100.00;92733.56;5030232;28;20409;-86
2021/04/18 09:39:31;;;;;;;23.92;11.18;;;;;;;6.05;100.00;92763.88;5030317;28;20045;-85
2021/04/18 09:41:58;;;;;;;20.45;10.43;;;;;;;6.08;100.00;92799.19;5029965;28;20053;-85
2021/04/18 09:44:31;;;;;;;39.17;18.15;;;;;;;6.26;100.00;92797.84;5029909;28;20398;-86
2021/04/18 09:47:00;;;;;;;22.88;12.05;;;;;;;6.49;100.00;92815.34;5029972;28;20053;-85
2021/04/18 09:49:27;;;;;;;22.80;11.07;;;;;;;6.55;100.00;92806.94;5030130;28;20053;-85
2021/04/18 09:51:59;;;;;;;18.63;9.85;;;;;;;6.74;100.00;92814.00;5030012;28;20050;-85
2021/04/18 09:54:32;;;;;;;21.63;11.27;;;;;;;6.82;100.00;92819.69;5030101;28;20049;-86
2021/04/18 09:57:19;;;;;;;19.90;10.38;;;;;;;6.88;100.00;92817.34;5029731;28;20413;-86
2021/04/18 10:00:01;;;;;;;20.25;8.75;;;;;;;6.34;100.00;92721.13;5029605;28;20445;-86
2021/04/18 10:02:28;;;;;;;24.65;10.60;;;;;;;6.81;100.00;92789.28;5029964;28;20061;-84
2021/04/18 10:05:08;;;;;;;23.50;11.18;;;;;;;6.64;100.00;92758.25;5029776;28;20049;-88
2021/04/18 10:07:35;;;;;;;20.73;10.35;;;;;;;7.13;100.00;92812.44;5035406;28;20053;-86
2021/04/18 10:10:02;;;;;;;;;;;;;;;7.06;100.00;92788.69;5048403;28;20045;-86
2021/04/18 10:12:28;;;;;;;22.05;12.00;;;;;;;7.20;100.00;92805.56;5047600;28;19921;-87
2021/04/18 10:15:01;;;;;;;;;;;;;;;7.28;100.00;92807.13;5047189;28;20044;-86
2021/04/18 10:17:33;;;;;;;21.80;8.98;;;;;;;7.29;100.00;92807.91;5056971;28;19928;-86
2021/04/18 10:19:59;;;;;;;19.92;8.90;;;;;;;6.97;100.00;92738.78;5065096;28;20056;-86
2021/04/18 10:22:26;;;;;;;23.05;9.98;;;;;;;6.88;100.00;92715.22;5043779;28;20052;-86
2021/04/18 10:24:53;;;;;;;22.70;11.23;;;;;;;7.63;100.00;92808.63;5048949;28;20053;-86
2021/04/18 10:27:22;;;;;;;21.42;9.50;;;;;;;7.34;100.00;92745.00;5049068;28;20075;-85
2021/04/18 10:29:49;;;;;;;23.48;11.43;;;;;;;7.76;100.00;92812.91;5049522;28;20049;-86
2021/04/18 10:32:17;;;;;;;25.70;9.88;;;;;;;7.55;100.00;92793.50;5047475;28;20411;-85
2021/04/18 10:34:43;;;;;;;21.52;9.65;;;;;;;7.60;100.00;92816.69;5029219;28;20042;-85
2021/04/18 10:37:10;;;;;;;;;;;;;;;7.48;100.00;92812.19;5053929;28;20068;-85
2021/04/18 10:39:36;;;;;;;20.73;8.77;;;;;;;7.44;100.00;92813.56;5069302;28;19924;-85
2021/04/18 10:42:04;;;;;;;18.15;9.73;;;;;;;7.28;100.00;92814.00;5068836;28;20058;-85
2021/04/18 10:44:32;;;;;;;17.25;8.90;;;;;;;7.26;100.00;92826.19;5068928;28;20586;-85
2021/04/18 10:47:00;;;;;;;14.63;7.35;;;;;;;7.25;100.00;92829.72;5069113;28;20044;-85
2021/04/18 10:49:27;;;;;;;16.77;8.48;;;;;;;7.18;100.00;92829.75;5069111;28;20090;-85
2021/04/18 10:51:55;;;;;;;17.40;9.27;;;;;;;6.89;100.00;92783.19;5068644;28;20527;-85
2021/04/18 10:54:22;;;;;;;25.63;10.20;;;;;;;7.14;100.00;92826.00;5069200;28;20045;-85
2021/04/18 10:56:49;;;;;;;25.80;9.70;;;;;;;7.06;100.00;92825.22;5068829;28;20495;-85
2021/04/18 10:59:16;;;;;;;26.20;11.00;;;;;;;7.02;100.00;92828.34;5061244;28;20090;-86
2021/04/18 11:01:43;;;;;;;17.90;8.02;;;;;;;7.03;100.00;92832.50;5048982;28;20060;-85
2021/04/18 11:04:10;;;;;;;17.02;7.78;;;;;;;7.02;100.00;92830.91;5049187;28;20049;-85
2021/04/18 11:06:37;;;;;;;28.75;12.68;;;;;;;6.81;100.00;92794.41;5041528;28;20053;-85
2021/04/18 11:09:04;;;;;;;18.88;9.63;;;;;;;7.13;100.00;92842.31;5028947;28;20046;-85
2021/04/18 11:11:30;;;;;;;20.65;8.57;;;;;;;7.13;100.00;92842.31;5028954;28;20460;-85
2021/04/18 11:13:57;;;;;;;19.55;8.80;;;;;;;6.95;100.00;92810.50;5029005;28;20060;-87
2021/04/18 11:16:23;;;;;;;;;;;;;;;7.22;100.00;92833.44;5029648;28;20054;-88
2021/04/18 11:18:51;;;;;;;29.17;12.45;;;;;;;7.25;100.00;92839.94;5029181;28;19975;-87
2021/04/18 11:21:22;;;;;;;27.27;11.18;;;;;;;7.35;100.00;92841.13;5066164;28;20434;-86
2021/04/18 11:23:48;;;;;;;28.77;14.65;;;;;;;7.04;100.00;92786.31;5051557;28;20103;-87
2021/04/18 11:26:14;;;;;;;;;;;;;;;7.58;100.00;92842.44;5047080;28;20114;-87
2021/04/18 11:28:40;;;;;;;31.38;16.98;;;;;;;7.60;100.00;92843.03;5047708;28;19925;-87
2021/04/18 11:31:07;;;;;;;23.95;13.95;;;;;;;7.34;100.00;92797.88;5048613;28;20045;-87
2021/04/18 11:33:33;;;;;;;;;;;;;;;7.72;100.00;92844.97;5036876;28;20080;-87
2021/04/18 11:36:00;;;;;;;24.38;10.75;;;;;;;7.24;100.00;92765.06;5028428;28;19935;-86
2021/04/18 11:38:29;;;;;;;20.60;10.50;;;;;;;7.73;100.00;92844.78;5028204;28;20132;-86
2021/04/18 11:40:56;;;;;;;22.00;9.93;;;;;;;7.48;100.00;92785.84;5029083;28;20054;-86
2021/04/18 11:43:22;;;;;;;24.10;10.27;;;;;;;7.96;100.00;92838.41;5028664;28;20072;-86
2021/04/18 11:45:49;;;;;;;;;;;;;;;8.01;100.00;92836.03;5030046;28;20099;-85
2021/04/18 11:48:15;;;;;;;38.15;17.20;;;;;;;8.06;100.00;92830.28;5032109;28;19925;-85
2021/04/18 11:50:44;;;;;;;;;;;;;;;8.33;100.00;92837.84;5032595;28;20049;-86
2021/04/18 11:53:11;;;;;;;21.48;11.38;;;;;;;7.88;100.00;92755.03;5032164;28;20207;-86
2021/04/18 11:55:38;;;;;;;22.95;10.45;;;;;;;8.43;100.00;92834.88;5031929;28;20451;-86
2021/04/18 11:58:05;;;;;;;25.20;12.63;;;;;;;8.50;100.00;92837.38;5032639;28;20049;-86
2021/04/18 12:00:32;;;;;;;21.85;8.35;;;;;;;8.53;100.00;92829.31;5031805;28;20049;-85
2021/04/18 12:03:17;;;;;;;23.15;10.95;;;;;;;8.27;100.00;92784.94;5031981;28;20046;-85